Time;durP1;ratioP1;P1;durP2;ratioP2;P2;SDS_P1;SDS_P2;PMS_P1;PMS_P2;Temp;Humidity;BMP_temperature;BMP_pressure;BME280_temperature;BME280_humidity;BME280_pressure;Samples;Min_cycle;Max_cycle;Signal;HPM_P1;HPM_P2
2022/01/29 00:00:46;;;;;;;4.28;3.05;;;;;;;;;;4994480;28;20049;-76
2022/01/29 00:03:12;;;;;;;5.07;3.13;;;;;;;;;;4994033;28;20154;-76
2022/01/29 00:05:37;;;;;;;4.70;2.97;;;;;;;;;;5010569;28;20033;-75
2022/01/29 00:08:03;;;;;;;4.82;3.10;;;;;;;;;;4994499;28;20124;-76
2022/01/29 00:10:30;;;;;;;5.85;3.28;;;;;;;;;;4994179;28;20037;-76
2022/01/29 00:12:56;;;;;;;4.90;3.17;;;;;;;;;;5011186;28;20045;-76
2022/01/29 00:15:21;;;;;;;5.38;3.85;;;;;;;;;;5030452;28;20052;-76
2022/01/29 00:17:47;;;;;;;6.65;3.17;;;;;;;;;;5013373;28;20095;-76
2022/01/29 00:20:12;;;;;;;5.75;3.65;;;;;;;;;;4975592;28;20037;-76
2022/01/29 00:22:38;;;;;;;4.55;3.22;;;;;;;;;;4994390;28;20065;-76
2022/01/29 00:25:04;;;;;;;5.57;3.22;;;;;;;;;;5010470;28;20050;-76
2022/01/29 00:27:33;;;;;;;4.32;3.10;;;;;;;;;;4992965;28;20530;-76
2022/01/29 00:30:02;;;;;;;5.25;3.20;;;;;;;;;;4979426;28;20088;-76
2022/01/29 00:32:29;;;;;;;5.25;3.60;;;;;;;;;;4994187;28;20044;-76
2022/01/29 00:34:54;;;;;;;4.45;3.03;;;;;;;;;;4994626;28;20508;-76
2022/01/29 00:37:20;;;;;;;5.80;3.25;;;;;;;;;;5005854;28;20176;-76
2022/01/29 00:39:45;;;;;;;6.40;3.78;;;;;;;;;;5030245;28;20052;-76
2022/01/29 00:42:11;;;;;;;5.53;3.65;;;;;;;;;;5017730;28;20393;-76
2022/01/29 00:44:36;;;;;;;5.70;3.20;;;;;;;;;;4994066;28;20046;-76
2022/01/29 00:47:02;;;;;;;4.47;2.83;;;;;;;;;;4993845;28;20516;-76
2022/01/29 00:49:27;;;;;;;6.00;3.42;;;;;;;;;;4993955;28;20037;-76
2022/01/29 00:51:53;;;;;;;5.50;3.13;;;;;;;;;;4993692;28;20034;-76
2022/01/29 00:54:18;;;;;;;4.85;3.10;;;;;;;;;;5013211;28;20057;-76
2022/01/29 00:56:44;;;;;;;4.88;2.97;;;;;;;;;;5007734;28;20111;-76
2022/01/29 00:59:09;;;;;;;7.40;3.53;;;;;;;;;;5017771;28;20038;-76
2022/01/29 01:01:35;;;;;;;5.40;3.30;;;;;;;;;;5009903;28;20034;-76
2022/01/29 01:04:00;;;;;;;7.43;3.65;;;;;;;;;;4997400;28;20454;-76
2022/01/29 01:06:26;;;;;;;4.40;3.30;;;;;;;;;;5014100;28;20389;-76
2022/01/29 01:08:51;;;;;;;8.23;4.03;;;;;;;;;;5013881;28;20574;-76
2022/01/29 01:11:17;;;;;;;5.88;3.35;;;;;;;;;;5001622;28;20088;-76
2022/01/29 01:13:42;;;;;;;5.20;2.83;;;;;;;;;;5015274;28;20411;-76
2022/01/29 01:16:08;;;;;;;5.05;3.25;;;;;;;;;;5032979;28;20037;-76
2022/01/29 01:18:33;;;;;;;4.30;3.17;;;;;;;;;;5016958;28;20091;-76
2022/01/29 01:20:59;;;;;;;4.78;3.22;;;;;;;;;;5000645;28;20039;-76
2022/01/29 01:23:24;;;;;;;5.28;3.58;;;;;;;;;;5017210;28;20045;-76
2022/01/29 01:25:49;;;;;;;5.60;3.50;;;;;;;;;;5029812;28;20069;-76
2022/01/29 01:28:15;;;;;;;4.97;3.33;;;;;;;;;;4999929;28;20053;-76
2022/01/29 01:30:41;;;;;;;6.20;2.92;;;;;;;;;;5000383;28;20052;-76
2022/01/29 01:33:06;;;;;;;5.40;3.03;;;;;;;;;;5033406;28;20116;-76
2022/01/29 01:35:44;;;;;;;4.75;3.50;;;;;;;;;;5002175;28;20512;-76
2022/01/29 01:40:39;;;;;;;3.78;2.80;;;;;;;;;;4997119;28;20570;-77
2022/01/29 01:43:05;;;;;;;4.93;2.97;;;;;;;;;;5000947;28;20046;-76
2022/01/29 01:45:30;;;;;;;5.25;2.97;;;;;;;;;;4980444;28;20411;-76
2022/01/29 01:47:56;;;;;;;5.10;3.08;;;;;;;;;;4999849;28;20076;-76
2022/01/29 01:50:21;;;;;;;4.30;2.72;;;;;;;;;;5016309;28;20050;-76
2022/01/29 01:52:48;;;;;;;3.70;2.45;;;;;;;;;;5019049;28;20408;-76
2022/01/29 01:55:13;;;;;;;3.58;2.58;;;;;;;;;;4997057;28;20069;-76
2022/01/29 01:57:39;;;;;;;4.93;3.13;;;;;;;;;;4996756;28;20428;-76
2022/01/29 02:00:05;;;;;;;3.55;2.35;;;;;;;;;;5015761;28;20037;-76
2022/01/29 02:02:30;;;;;;;3.75;2.50;;;;;;;;;;5015895;28;20419;-76
2022/01/29 02:04:56;;;;;;;4.45;2.40;;;;;;;;;;4983157;28;20030;-76
2022/01/29 02:07:21;;;;;;;5.43;3.10;;;;;;;;;;5014314;28;20068;-76
2022/01/29 02:09:47;;;;;;;4.80;2.80;;;;;;;;;;5032853;28;20038;-76
2022/01/29 02:12:13;;;;;;;3.40;2.08;;;;;;;;;;5008437;28;20059;-76
2022/01/29 02:14:39;;;;;;;4.30;2.58;;;;;;;;;;4998027;28;20099;-76
2022/01/29 02:17:05;;;;;;;4.40;2.50;;;;;;;;;;5016414;28;20065;-76
2022/01/29 02:19:31;;;;;;;4.13;2.65;;;;;;;;;;4999347;28;20072;-76
2022/01/29 02:21:56;;;;;;;4.57;2.63;;;;;;;;;;4993744;28;20038;-76
2022/01/29 02:24:22;;;;;;;3.80;2.13;;;;;;;;;;4980162;28;20157;-76
2022/01/29 02:26:47;;;;;;;4.47;2.60;;;;;;;;;;4996160;28;20596;-76
2022/01/29 02:29:14;;;;;;;4.95;3.75;;;;;;;;;;4996404;28;20042;-76
2022/01/29 02:31:47;;;;;;;3.28;2.25;;;;;;;;;;5012213;28;20095;-76
2022/01/29 02:34:13;;;;;;;3.53;2.58;;;;;;;;;;5006140;28;20049;-76
2022/01/29 02:36:38;;;;;;;5.85;2.83;;;;;;;;;;5012270;28;20029;-76
2022/01/29 02:39:03;;;;;;;3.75;2.40;;;;;;;;;;5013380;28;20366;-76
2022/01/29 02:41:29;;;;;;;3.65;2.35;;;;;;;;;;4995977;28;20034;-76
2022/01/29 02:44:00;;;;;;;4.65;2.30;;;;;;;;;;5011765;28;20523;-76
2022/01/29 02:46:40;;;;;;;3.35;2.03;;;;;;;;;;4996553;28;20738;-76
2022/01/29 02:49:06;;;;;;;3.72;2.13;;;;;;;;;;4997794;28;20042;-76
2022/01/29 02:51:31;;;;;;;3.78;2.30;;;;;;;;;;4995694;28;20389;-76
2022/01/29 02:53:57;;;;;;;4.18;2.50;;;;;;;;;;4995776;28;20060;-76
2022/01/29 02:56:22;;;;;;;4.60;2.42;;;;;;;;;;4995989;28;20033;-76
2022/01/29 02:58:48;;;;;;;3.55;2.63;;;;;;;;;;4995617;28;20087;-76
2022/01/29 03:01:13;;;;;;;4.35;2.40;;;;;;;;;;4995373;28;20397;-76
2022/01/29 03:03:39;;;;;;;3.75;2.20;;;;;;;;;;5011529;28;20389;-77
2022/01/29 03:06:08;;;;;;;4.22;2.00;;;;;;;;;;4995324;28;20455;-76
2022/01/29 03:08:34;;;;;;;4.32;2.33;;;;;;;;;;4980603;28;20037;-77
2022/01/29 03:10:59;;;;;;;2.75;1.70;;;;;;;;;;4984900;28;20396;-76
2022/01/29 03:13:25;;;;;;;4.05;2.22;;;;;;;;;;5014518;28;20041;-76
2022/01/29 03:15:50;;;;;;;4.57;2.03;;;;;;;;;;5030643;28;20420;-77
2022/01/29 03:18:15;;;;;;;3.47;2.40;;;;;;;;;;4998597;28;20420;-76
2022/01/29 03:20:41;;;;;;;3.65;1.90;;;;;;;;;;5024362;28;20475;-76
2022/01/29 03:23:06;;;;;;;3.05;1.60;;;;;;;;;;5027598;28;20072;-76
2022/01/29 03:25:32;;;;;;;3.17;1.90;;;;;;;;;;5014693;28;20435;-76
2022/01/29 03:27:57;;;;;;;4.10;2.22;;;;;;;;;;5014280;28;20045;-77
2022/01/29 03:30:23;;;;;;;2.80;1.85;;;;;;;;;;4998117;28;20470;-76
2022/01/29 03:32:48;;;;;;;2.50;1.85;;;;;;;;;;5014297;28;20393;-76
2022/01/29 03:35:16;;;;;;;3.38;2.42;;;;;;;;;;5018818;28;20440;-76
2022/01/29 03:37:41;;;;;;;3.75;2.50;;;;;;;;;;4995163;28;20042;-77
2022/01/29 03:40:08;;;;;;;4.25;1.90;;;;;;;;;;4978106;28;20115;-76
2022/01/29 03:42:39;;;;;;;2.85;1.88;;;;;;;;;;5012567;28;20041;-76
2022/01/29 03:45:07;;;;;;;2.92;1.90;;;;;;;;;;4983521;28;20048;-76
2022/01/29 03:47:33;;;;;;;2.90;1.75;;;;;;;;;;5014790;28;20048;-76
2022/01/29 03:49:58;;;;;;;2.83;1.50;;;;;;;;;;4997818;28;20108;-76
2022/01/29 03:52:23;;;;;;;3.00;1.73;;;;;;;;;;5014231;28;20049;-76
2022/01/29 03:54:49;;;;;;;2.67;1.58;;;;;;;;;;5014020;28;20037;-77
2022/01/29 03:57:14;;;;;;;2.90;1.73;;;;;;;;;;5008914;28;20045;-77
2022/01/29 03:59:40;;;;;;;2.72;1.77;;;;;;;;;;4998059;28;20033;-76
2022/01/29 04:02:06;;;;;;;2.63;1.13;;;;;;;;;;5006161;28;20466;-76
2022/01/29 04:04:32;;;;;;;3.53;1.52;;;;;;;;;;4994777;28;20567;-76
2022/01/29 04:07:04;;;;;;;3.03;1.70;;;;;;;;;;4994356;28;20135;-77
2022/01/29 04:09:30;;;;;;;2.08;1.45;;;;;;;;;;4980479;28;20033;-77
2022/01/29 04:11:55;;;;;;;3.60;1.90;;;;;;;;;;5006388;28;20045;-77
2022/01/29 04:14:21;;;;;;;3.50;1.80;;;;;;;;;;5013896;28;20033;-77
2022/01/29 04:16:47;;;;;;;2.33;1.30;;;;;;;;;;5014183;28;20047;-77
2022/01/29 04:19:12;;;;;;;3.75;1.38;;;;;;;;;;5014022;28;20403;-77
2022/01/29 04:21:38;;;;;;;2.60;1.60;;;;;;;;;;4981371;28;20037;-77
2022/01/29 04:24:04;;;;;;;3.10;2.30;;;;;;;;;;5013644;28;20030;-77
2022/01/29 04:26:34;;;;;;;2.78;1.65;;;;;;;;;;5029942;28;20072;-77
2022/01/29 04:29:01;;;;;;;2.47;1.38;;;;;;;;;;5002960;28;20038;-77
2022/01/29 04:31:36;;;;;;;2.45;1.30;;;;;;;;;;5001557;28;20426;-77
2022/01/29 04:34:02;;;;;;;2.55;1.40;;;;;;;;;;4992459;28;20042;-77
2022/01/29 04:36:27;;;;;;;3.88;1.95;;;;;;;;;;4982143;28;20116;-77
2022/01/29 04:38:53;;;;;;;2.10;1.33;;;;;;;;;;4998041;28;20121;-77
2022/01/29 04:41:21;;;;;;;2.13;1.15;;;;;;;;;;5001990;28;20049;-77
2022/01/29 04:43:47;;;;;;;2.35;1.48;;;;;;;;;;5015747;28;20063;-77
2022/01/29 04:46:12;;;;;;;2.08;1.30;;;;;;;;;;5017010;28;20041;-77
2022/01/29 04:48:38;;;;;;;2.35;1.52;;;;;;;;;;5017570;28;20033;-77
2022/01/29 04:51:03;;;;;;;1.88;1.23;;;;;;;;;;5017301;28;20063;-77
2022/01/29 04:53:28;;;;;;;2.03;1.38;;;;;;;;;;4998139;28;20315;-77
2022/01/29 04:55:54;;;;;;;1.92;1.10;;;;;;;;;;5001565;28;20451;-77
2022/01/29 04:58:19;;;;;;;1.55;1.10;;;;;;;;;;4997791;28;20034;-77
2022/01/29 05:00:45;;;;;;;2.10;1.20;;;;;;;;;;5014190;28;20041;-77
2022/01/29 05:03:12;;;;;;;2.97;1.50;;;;;;;;;;5013651;28;20076;-77
2022/01/29 05:05:38;;;;;;;2.10;1.38;;;;;;;;;;4997388;28;20045;-77
2022/01/29 05:08:04;;;;;;;2.15;1.30;;;;;;;;;;5013884;28;20069;-77
2022/01/29 05:10:29;;;;;;;2.17;1.23;;;;;;;;;;5010608;28;20136;-76
2022/01/29 05:13:01;;;;;;;1.88;1.10;;;;;;;;;;5016662;28;20037;-77
2022/01/29 05:15:37;;;;;;;1.33;0.90;;;;;;;;;;5018085;28;20037;-77
2022/01/29 05:28:59;;;;;;;1.90;1.05;;;;;;;;;;4999824;28;20030;-77
2022/01/29 05:31:24;;;;;;;1.88;1.02;;;;;;;;;;4996759;28;20065;-77
2022/01/29 05:33:50;;;;;;;1.50;1.00;;;;;;;;;;5005915;28;20133;-76
2022/01/29 05:36:15;;;;;;;1.75;1.05;;;;;;;;;;4980839;28;20128;-77
2022/01/29 05:38:41;;;;;;;1.52;0.93;;;;;;;;;;5012825;28;20124;-77
2022/01/29 05:41:07;;;;;;;1.67;0.90;;;;;;;;;;4989059;28;20042;-77
2022/01/29 05:43:32;;;;;;;1.40;0.90;;;;;;;;;;4996956;28;20393;-77
2022/01/29 05:45:58;;;;;;;1.95;1.05;;;;;;;;;;4996902;28;20113;-77
2022/01/29 05:48:23;;;;;;;1.75;1.23;;;;;;;;;;4980860;28;20064;-76
2022/01/29 05:50:49;;;;;;;1.90;1.10;;;;;;;;;;4996421;28;20076;-77
2022/01/29 05:53:14;;;;;;;1.45;0.80;;;;;;;;;;4997041;28;20030;-77
2022/01/29 05:55:39;;;;;;;2.08;0.90;;;;;;;;;;5006769;28;20501;-77
2022/01/29 05:58:05;;;;;;;2.38;0.80;;;;;;;;;;4980807;28;20374;-76
2022/01/29 06:00:30;;;;;;;1.42;0.75;;;;;;;;;;4980519;28;20046;-76
2022/01/29 06:03:03;;;;;;;1.33;0.80;;;;;;;;;;5012469;28;20038;-77
2022/01/29 06:05:28;;;;;;;2.63;0.93;;;;;;;;;;5007818;28;20041;-76
2022/01/29 06:07:54;;;;;;;1.75;0.80;;;;;;;;;;4999963;28;20091;-76
2022/01/29 06:10:19;;;;;;;1.70;0.80;;;;;;;;;;5013717;28;20045;-77
2022/01/29 06:12:45;;;;;;;1.10;0.70;;;;;;;;;;4999469;28;20037;-76
2022/01/29 06:15:11;;;;;;;1.17;0.80;;;;;;;;;;5032867;28;20400;-76
2022/01/29 06:17:38;;;;;;;1.10;0.60;;;;;;;;;;4999871;28;20041;-77
2022/01/29 06:20:04;;;;;;;0.82;0.52;;;;;;;;;;5032557;28;20041;-77
2022/01/29 06:22:29;;;;;;;1.30;0.85;;;;;;;;;;4999804;28;20109;-77
2022/01/29 06:24:55;;;;;;;1.05;0.52;;;;;;;;;;4997421;28;20129;-77
2022/01/29 06:27:20;;;;;;;1.98;1.00;;;;;;;;;;4997860;28;20037;-75
2022/01/29 06:29:45;;;;;;;1.13;0.50;;;;;;;;;;4969714;28;20049;-77
2022/01/29 06:32:11;;;;;;;0.80;0.40;;;;;;;;;;5010305;28;20104;-77
2022/01/29 06:34:36;;;;;;;0.82;0.40;;;;;;;;;;4987263;28;20503;-76
2022/01/29 06:37:02;;;;;;;0.90;0.55;;;;;;;;;;5015449;28;20143;-76
2022/01/29 06:39:27;;;;;;;0.90;0.55;;;;;;;;;;5015411;28;20057;-77
2022/01/29 06:41:53;;;;;;;0.80;0.50;;;;;;;;;;5014288;28;20562;-77
2022/01/29 06:44:18;;;;;;;1.00;0.60;;;;;;;;;;4999272;28;20400;-77
2022/01/29 06:46:44;;;;;;;0.88;0.43;;;;;;;;;;5012886;28;20076;-78
2022/01/29 06:49:09;;;;;;;0.85;0.45;;;;;;;;;;4982812;28;20404;-78
2022/01/29 06:51:35;;;;;;;0.77;0.45;;;;;;;;;;5014046;28;20029;-78
2022/01/29 06:54:00;;;;;;;1.73;1.05;;;;;;;;;;4991009;28;20038;-78
2022/01/29 06:56:26;;;;;;;0.90;0.65;;;;;;;;;;4992083;28;20042;-78
2022/01/29 06:58:51;;;;;;;1.02;0.60;;;;;;;;;;4995511;28;20038;-78
2022/01/29 07:01:16;;;;;;;2.30;0.95;;;;;;;;;;5011885;28;20048;-80
2022/01/29 07:03:42;;;;;;;2.58;0.80;;;;;;;;;;4994211;28;20052;-79
2022/01/29 07:06:07;;;;;;;3.35;1.08;;;;;;;;;;4979267;28;20038;-76
2022/01/29 07:08:37;;;;;;;6.38;0.70;;;;;;;;;;5011762;28;20144;-76
2022/01/29 07:11:02;;;;;;;4.75;0.80;;;;;;;;;;4996402;28;20443;-76
2022/01/29 07:13:28;;;;;;;3.88;0.80;;;;;;;;;;5014941;28;20041;-77
2022/01/29 07:15:53;;;;;;;5.43;1.35;;;;;;;;;;4998429;28;20095;-77
2022/01/29 07:18:19;;;;;;;2.60;0.68;;;;;;;;;;5014502;28;20123;-77
2022/01/29 07:20:46;;;;;;;1.65;0.50;;;;;;;;;;5014917;28;20435;-77
2022/01/29 07:23:12;;;;;;;4.35;1.02;;;;;;;;;;5015419;28;20044;-77
2022/01/29 07:25:37;;;;;;;3.38;1.00;;;;;;;;;;4982300;28;20041;-77
2022/01/29 07:28:03;;;;;;;2.67;0.50;;;;;;;;;;4998425;28;20041;-77
2022/01/29 07:30:28;;;;;;;5.25;0.80;;;;;;;;;;5014754;28;20107;-77
2022/01/29 07:32:54;;;;;;;2.08;0.60;;;;;;;;;;5028513;28;20033;-77
2022/01/29 07:35:19;;;;;;;3.17;0.70;;;;;;;;;;5001630;28;20049;-77
2022/01/29 07:37:45;;;;;;;2.90;1.17;;;;;;;;;;5011240;28;20400;-76
2022/01/29 07:40:10;;;;;;;3.42;0.60;;;;;;;;;;4994690;28;20060;-77
2022/01/29 07:42:36;;;;;;;2.20;0.50;;;;;;;;;;4995061;28;20452;-77
2022/01/29 07:45:02;;;;;;;5.35;0.90;;;;;;;;;;4996019;28;20912;-77
2022/01/29 07:47:27;;;;;;;4.18;0.50;;;;;;;;;;4994725;28;20038;-77
2022/01/29 07:49:53;;;;;;;1.65;0.40;;;;;;;;;;4994425;28;20038;-77
2022/01/29 07:52:18;;;;;;;3.53;0.60;;;;;;;;;;4994506;28;20034;-77
2022/01/29 07:54:44;;;;;;;0.93;0.50;;;;;;;;;;5011015;28;20482;-77
2022/01/29 07:57:09;;;;;;;1.38;0.50;;;;;;;;;;4998523;28;20038;-77
2022/01/29 07:59:35;;;;;;;2.78;0.55;;;;;;;;;;5011171;28;20038;-77
2022/01/29 08:02:00;;;;;;;1.27;0.50;;;;;;;;;;5016601;28;20385;-77
2022/01/29 08:04:25;;;;;;;2.30;0.55;;;;;;;;;;5013900;28;20404;-77
2022/01/29 08:06:51;;;;;;;1.48;0.60;;;;;;;;;;4998289;28;20033;-77
2022/01/29 08:09:17;;;;;;;2.78;0.40;;;;;;;;;;4997864;28;20049;-77
2022/01/29 08:11:42;;;;;;;1.85;0.43;;;;;;;;;;5013320;28;20049;-77
2022/01/29 08:14:09;;;;;;;1.40;0.43;;;;;;;;;;5014082;28;20049;-77
2022/01/29 08:16:34;;;;;;;1.95;0.43;;;;;;;;;;5012315;28;20030;-77
2022/01/29 08:19:00;;;;;;;2.17;0.30;;;;;;;;;;5013769;28;20037;-77
2022/01/29 08:21:25;;;;;;;1.10;0.40;;;;;;;;;;5012072;28;20232;-77
2022/01/29 08:23:51;;;;;;;1.23;0.32;;;;;;;;;;4978472;28;20068;-76
2022/01/29 08:26:16;;;;;;;0.85;0.38;;;;;;;;;;4980360;28;20046;-77
2022/01/29 08:28:42;;;;;;;1.20;0.40;;;;;;;;;;4994323;28;20049;-77
2022/01/29 08:31:07;;;;;;;0.70;0.32;;;;;;;;;;4993656;28;20034;-77
2022/01/29 08:33:33;;;;;;;1.58;0.22;;;;;;;;;;4999839;28;20034;-76
2022/01/29 08:35:58;;;;;;;1.85;0.55;;;;;;;;;;5012114;28;20079;-76
2022/01/29 08:38:24;;;;;;;0.85;0.32;;;;;;;;;;5013860;28;20077;-77
2022/01/29 08:40:50;;;;;;;1.23;0.60;;;;;;;;;;5013558;28;20103;-76
2022/01/29 08:43:15;;;;;;;1.98;0.50;;;;;;;;;;4997803;28;20045;-76
2022/01/29 08:45:41;;;;;;;0.80;0.40;;;;;;;;;;5013643;28;20060;-77
2022/01/29 08:48:09;;;;;;;2.42;0.30;;;;;;;;;;4996858;28;20041;-76
2022/01/29 08:50:35;;;;;;;0.85;0.30;;;;;;;;;;5013980;28;20086;-76
2022/01/29 08:53:00;;;;;;;0.88;0.45;;;;;;;;;;5013581;28;20044;-76
2022/01/29 08:55:26;;;;;;;0.98;0.40;;;;;;;;;;5013836;28;20025;-76
2022/01/29 08:57:51;;;;;;;1.67;0.40;;;;;;;;;;5026404;28;20805;-76
2022/01/29 09:00:17;;;;;;;2.17;0.50;;;;;;;;;;4993700;28;20153;-76
2022/01/29 09:02:43;;;;;;;1.05;0.50;;;;;;;;;;4977537;28;20041;-76
2022/01/29 09:05:10;;;;;;;1.73;0.88;;;;;;;;;;4994441;28;20026;-76
2022/01/29 09:07:35;;;;;;;0.93;0.28;;;;;;;;;;4994153;28;20058;-76
2022/01/29 09:10:01;;;;;;;1.52;0.30;;;;;;;;;;5019503;28;20065;-76
2022/01/29 09:12:26;;;;;;;1.23;0.45;;;;;;;;;;5006861;28;20086;-77
2022/01/29 09:14:51;;;;;;;0.47;0.28;;;;;;;;;;4999178;28;20080;-76
2022/01/29 09:17:17;;;;;;;0.55;0.30;;;;;;;;;;5017160;28;20115;-76
2022/01/29 09:19:42;;;;;;;0.60;0.28;;;;;;;;;;5016645;28;20087;-76
2022/01/29 09:22:08;;;;;;;0.75;0.30;;;;;;;;;;5016963;28;20034;-76
2022/01/29 09:24:33;;;;;;;0.90;0.30;;;;;;;;;;5000933;28;20037;-77
2022/01/29 09:26:59;;;;;;;0.43;0.30;;;;;;;;;;5007050;28;20120;-76
2022/01/29 09:29:24;;;;;;;0.40;0.25;;;;;;;;;;4997106;28;20412;-76
2022/01/29 09:31:50;;;;;;;1.17;0.75;;;;;;;;;;4996849;28;20034;-76
2022/01/29 09:34:15;;;;;;;0.63;0.30;;;;;;;;;;5000895;28;20112;-76
2022/01/29 09:36:41;;;;;;;0.85;0.30;;;;;;;;;;4996540;28;20412;-77
2022/01/29 09:39:06;;;;;;;0.85;0.40;;;;;;;;;;4984001;28;20108;-76
2022/01/29 09:41:32;;;;;;;0.73;0.30;;;;;;;;;;5013034;28;20080;-77
2022/01/29 09:43:57;;;;;;;0.70;0.30;;;;;;;;;;4983276;28;20057;-76
2022/01/29 09:46:26;;;;;;;0.85;0.20;;;;;;;;;;4996937;28;20042;-76
2022/01/29 09:48:51;;;;;;;0.70;0.20;;;;;;;;;;4997378;28;20044;-76
2022/01/29 09:51:17;;;;;;;0.63;0.30;;;;;;;;;;4996717;28;20037;-76
2022/01/29 09:53:43;;;;;;;0.63;0.25;;;;;;;;;;4996890;28;20080;-76
2022/01/29 09:56:12;;;;;;;0.63;0.20;;;;;;;;;;4996632;28;20120;-77
2022/01/29 09:58:37;;;;;;;1.52;0.52;;;;;;;;;;4995621;28;20038;-76
2022/01/29 10:01:03;;;;;;;0.50;0.17;;;;;;;;;;5012765;28;20092;-77
2022/01/29 10:03:28;;;;;;;0.50;0.20;;;;;;;;;;4981419;28;20048;-76
2022/01/29 10:05:54;;;;;;;0.30;0.10;;;;;;;;;;4996520;28;20500;-76
2022/01/29 10:08:20;;;;;;;0.82;0.20;;;;;;;;;;4996495;28;20057;-76
2022/01/29 10:10:50;;;;;;;1.88;0.25;;;;;;;;;;4996160;28;20404;-76
2022/01/29 10:13:32;;;;;;;1.17;0.47;;;;;;;;;;5012753;28;20069;-77
2022/01/29 10:16:20;;;;;;;0.25;0.20;;;;;;;;;;4997763;28;20569;-76
2022/01/29 10:19:00;;;;;;;0.57;0.32;;;;;;;;;;5012433;28;20041;-76
2022/01/29 10:21:32;;;;;;;0.38;0.17;;;;;;;;;;4996403;28;20099;-76
2022/01/29 10:24:05;;;;;;;0.75;0.20;;;;;;;;;;4997188;28;20439;-76
2022/01/29 10:26:33;;;;;;;0.15;0.10;;;;;;;;;;4996861;28;20038;-76
2022/01/29 10:28:59;;;;;;;0.93;0.35;;;;;;;;;;4980170;28;20374;-76
2022/01/29 10:31:24;;;;;;;1.08;0.20;;;;;;;;;;5028806;28;20095;-76
2022/01/29 10:33:50;;;;;;;0.40;0.13;;;;;;;;;;5013061;28;20034;-76
2022/01/29 10:36:16;;;;;;;1.08;0.40;;;;;;;;;;4998141;28;20041;-77
2022/01/29 10:38:57;;;;;;;0.50;0.20;;;;;;;;;;5015648;28;20470;-76
2022/01/29 10:41:30;;;;;;;0.20;0.10;;;;;;;;;;4999218;28;20084;-76
2022/01/29 10:44:19;;;;;;;0.52;0.20;;;;;;;;;;5015521;28;20037;-77
2022/01/29 10:46:48;;;;;;;0.30;0.20;;;;;;;;;;5032369;28;20045;-77
2022/01/29 10:49:24;;;;;;;0.35;0.20;;;;;;;;;;5033084;28;20124;-76
2022/01/29 10:51:54;;;;;;;0.75;0.32;;;;;;;;;;5014618;28;20061;-77
2022/01/29 10:54:20;;;;;;;0.57;0.10;;;;;;;;;;5015616;28;20045;-76
2022/01/29 10:56:52;;;;;;;1.00;0.20;;;;;;;;;;5030781;28;20040;-77
2022/01/29 10:59:18;;;;;;;0.35;0.10;;;;;;;;;;5032062;28;20029;-77
2022/01/29 11:01:59;;;;;;;0.68;0.22;;;;;;;;;;5014732;28;20518;-77
2022/01/29 11:04:26;;;;;;;0.63;0.20;;;;;;;;;;4995692;28;20507;-77
2022/01/29 11:06:52;;;;;;;0.30;0.20;;;;;;;;;;4995887;28;20116;-77
2022/01/29 11:09:18;;;;;;;0.38;0.17;;;;;;;;;;4995691;28;20044;-77
2022/01/29 11:11:45;;;;;;;0.98;0.30;;;;;;;;;;4998472;28;20109;-77
2022/01/29 11:14:16;;;;;;;1.25;0.28;;;;;;;;;;5015078;28;20048;-77
2022/01/29 11:16:41;;;;;;;0.50;0.20;;;;;;;;;;4998723;28;20044;-77
2022/01/29 11:19:07;;;;;;;0.47;0.20;;;;;;;;;;5014601;28;20041;-77
2022/01/29 11:21:32;;;;;;;0.80;0.20;;;;;;;;;;4998643;28;20037;-77
2022/01/29 11:23:58;;;;;;;0.57;0.20;;;;;;;;;;4997476;28;20037;-77
2022/01/29 11:26:23;;;;;;;0.40;0.20;;;;;;;;;;4997488;28;20041;-77
2022/01/29 11:28:49;;;;;;;1.02;0.22;;;;;;;;;;4998620;28;20037;-77
2022/01/29 11:31:14;;;;;;;0.60;0.30;;;;;;;;;;5014342;28;20036;-77
2022/01/29 11:33:58;;;;;;;0.55;0.25;;;;;;;;;;5031003;28;20064;-77
2022/01/29 11:36:49;;;;;;;1.25;0.55;;;;;;;;;;5012035;28;20033;-77
2022/01/29 11:39:25;;;;;;;0.77;0.25;;;;;;;;;;5011164;28;20041;-77
2022/01/29 11:42:15;;;;;;;0.65;0.20;;;;;;;;;;5001722;28;20048;-77
2022/01/29 11:44:41;;;;;;;1.48;0.40;;;;;;;;;;5011474;28;20103;-77
2022/01/29 11:47:22;;;;;;;0.73;0.30;;;;;;;;;;5011157;28;20037;-77
2022/01/29 11:49:48;;;;;;;1.30;0.25;;;;;;;;;;5011085;28;20121;-77
2022/01/29 11:52:21;;;;;;;1.85;0.30;;;;;;;;;;4981070;28;20129;-77
2022/01/29 11:55:02;;;;;;;1.30;0.52;;;;;;;;;;4994521;28;20041;-77
2022/01/29 11:57:28;;;;;;;1.25;0.50;;;;;;;;;;4995022;28;20034;-77
2022/01/29 11:59:53;;;;;;;1.08;0.30;;;;;;;;;;4998073;28;20049;-76
2022/01/29 12:02:18;;;;;;;1.08;0.25;;;;;;;;;;4994429;28;20559;-76
2022/01/29 12:04:58;;;;;;;0.80;0.20;;;;;;;;;;5038797;28;20033;-77
2022/01/29 12:07:31;;;;;;;1.75;0.50;;;;;;;;;;5030781;28;20044;-76
2022/01/29 12:10:06;;;;;;;1.92;0.40;;;;;;;;;;4998235;28;20046;-77
2022/01/29 12:12:33;;;;;;;1.77;0.63;;;;;;;;;;5012783;28;20065;-77
2022/01/29 12:15:08;;;;;;;2.80;0.43;;;;;;;;;;4978367;28;20037;-76
2022/01/29 12:17:48;;;;;;;0.65;0.30;;;;;;;;;;5024104;28;20561;-77
2022/01/29 12:20:17;;;;;;;1.20;0.30;;;;;;;;;;5031598;28;20064;-76
2022/01/29 12:22:44;;;;;;;3.33;0.32;;;;;;;;;;5014194;28;20038;-76
2022/01/29 12:25:19;;;;;;;1.38;0.30;;;;;;;;;;5019762;28;20065;-76
2022/01/29 12:27:54;;;;;;;1.65;0.30;;;;;;;;;;5012110;28;20061;-76
2022/01/29 12:30:31;;;;;;;1.92;0.47;;;;;;;;;;5030169;28;20483;-77
2022/01/29 12:33:03;;;;;;;1.20;0.22;;;;;;;;;;5006173;28;20041;-76
2022/01/29 12:35:31;;;;;;;;;;;;;;;;;;5008959;28;20034;-76
2022/01/29 12:37:57;;;;;;;1.60;0.40;;;;;;;;;;5018429;28;20431;-76
2022/01/29 12:40:23;;;;;;;2.67;0.55;;;;;;;;;;5006065;28;20079;-76
2022/01/29 12:42:59;;;;;;;2.88;0.30;;;;;;;;;;4999046;28;20100;-76
2022/01/29 12:45:27;;;;;;;2.95;0.40;;;;;;;;;;5010625;28;20508;-76
2022/01/29 12:48:05;;;;;;;1.83;0.50;;;;;;;;;;4994214;28;20065;-76
2022/01/29 12:50:31;;;;;;;2.10;0.50;;;;;;;;;;4982917;28;20100;-76
2022/01/29 12:53:17;;;;;;;1.65;0.50;;;;;;;;;;5021987;28;20512;-77
2022/01/29 12:55:42;;;;;;;3.50;0.80;;;;;;;;;;4982048;28;20401;-76
2022/01/29 12:58:08;;;;;;;1.35;0.50;;;;;;;;;;5001137;28;20144;-76
2022/01/29 13:00:34;;;;;;;1.45;0.43;;;;;;;;;;5006245;28;20064;-76
2022/01/29 13:03:08;;;;;;;1.33;0.40;;;;;;;;;;4988619;28;20075;-77
2022/01/29 13:05:41;;;;;;;0.77;0.40;;;;;;;;;;5012624;28;20038;-76
2022/01/29 13:08:07;;;;;;;2.45;0.73;;;;;;;;;;5017034;28;20029;-77
2022/01/29 13:10:32;;;;;;;3.25;0.60;;;;;;;;;;5015009;28;20034;-77
2022/01/29 13:12:58;;;;;;;3.25;0.70;;;;;;;;;;5018229;28;20136;-76
2022/01/29 13:15:33;;;;;;;4.25;0.40;;;;;;;;;;4997603;28;20053;-77
2022/01/29 13:17:58;;;;;;;5.28;1.75;;;;;;;;;;5019174;28;20053;-76
2022/01/29 13:20:24;;;;;;;2.42;0.70;;;;;;;;;;5007444;28;20439;-76
2022/01/29 13:22:51;;;;;;;5.18;0.90;;;;;;;;;;5008803;28;20049;-76
2022/01/29 13:25:17;;;;;;;7.25;1.48;;;;;;;;;;4986886;28;20044;-76
2022/01/29 13:27:43;;;;;;;2.85;0.52;;;;;;;;;;5026618;28;20049;-76
2022/01/29 13:30:20;;;;;;;6.40;0.93;;;;;;;;;;5012965;28;20397;-76
2022/01/29 13:32:47;;;;;;;5.72;0.90;;;;;;;;;;5013976;28;20038;-76
2022/01/29 13:35:16;;;;;;;6.65;1.23;;;;;;;;;;4996319;28;20449;-76
2022/01/29 13:37:41;;;;;;;9.10;1.20;;;;;;;;;;5023758;28;20034;-76
2022/01/29 13:40:08;;;;;;;4.05;1.35;;;;;;;;;;4996895;28;20109;-76
2022/01/29 13:42:35;;;;;;;4.97;0.95;;;;;;;;;;5028855;28;20042;-76
2022/01/29 13:45:22;;;;;;;9.00;1.00;;;;;;;;;;5016501;28;20080;-76
2022/01/29 13:48:06;;;;;;;4.50;0.60;;;;;;;;;;4984721;28;20416;-76
2022/01/29 13:50:53;;;;;;;11.55;1.33;;;;;;;;;;5033632;28;20464;-76
2022/01/29 13:53:20;;;;;;;11.63;2.05;;;;;;;;;;5002180;28;20044;-76
2022/01/29 13:56:10;;;;;;;7.47;2.83;;;;;;;;;;4996523;28;20044;-76
2022/01/29 13:58:59;;;;;;;12.05;3.42;;;;;;;;;;5011942;28;20038;-76
2022/01/29 14:01:40;;;;;;;12.63;2.67;;;;;;;;;;4980172;28;20104;-76
2022/01/29 14:04:33;;;;;;;9.32;3.15;;;;;;;;;;5015576;28;20116;-75
2022/01/29 14:07:02;;;;;;;13.18;3.28;;;;;;;;;;5044331;28;20049;-76
2022/01/29 14:09:33;;;;;;;13.73;3.35;;;;;;;;;;4998179;28;20049;-76
2022/01/29 14:12:00;;;;;;;8.73;2.78;;;;;;;;;;5014224;28;20042;-76
2022/01/29 14:14:26;;;;;;;10.48;2.63;;;;;;;;;;5018091;28;20045;-76
2022/01/29 14:16:52;;;;;;;11.48;3.03;;;;;;;;;;5000344;28;20121;-76
2022/01/29 14:19:19;;;;;;;17.30;6.10;;;;;;;;;;5015538;28;20045;-76
2022/01/29 14:21:45;;;;;;;13.88;5.80;;;;;;;;;;4999270;28;20034;-76
2022/01/29 14:24:11;;;;;;;13.00;4.90;;;;;;;;;;5001141;28;20042;-75
2022/01/29 14:26:37;;;;;;;14.15;5.18;;;;;;;;;;5018017;28;20033;-76
2022/01/29 14:29:02;;;;;;;13.80;4.50;;;;;;;;;;5018329;28;20045;-76
2022/01/29 14:31:28;;;;;;;9.55;3.88;;;;;;;;;;5016343;28;20037;-76
2022/01/29 14:33:53;;;;;;;13.77;5.57;;;;;;;;;;4995800;28;20123;-75
2022/01/29 14:36:19;;;;;;;14.38;3.80;;;;;;;;;;5022118;28;20034;-76
2022/01/29 14:38:44;;;;;;;7.45;3.42;;;;;;;;;;5015702;28;20397;-75
2022/01/29 14:41:09;;;;;;;11.98;3.33;;;;;;;;;;5015335;28;20507;-76
2022/01/29 14:43:35;;;;;;;11.73;3.55;;;;;;;;;;5031875;28;20124;-76
2022/01/29 14:46:01;;;;;;;10.35;3.45;;;;;;;;;;5032191;28;20087;-75
2022/01/29 14:48:27;;;;;;;8.73;3.60;;;;;;;;;;5031432;28;20099;-76
2022/01/29 14:50:52;;;;;;;11.35;3.28;;;;;;;;;;5014820;28;20046;-75
2022/01/29 14:53:19;;;;;;;8.65;3.10;;;;;;;;;;4979507;28;20496;-75
2022/01/29 14:55:44;;;;;;;8.38;3.10;;;;;;;;;;5011490;28;20034;-75
2022/01/29 14:58:10;;;;;;;28.00;4.13;;;;;;;;;;4982300;28;20096;-75